This is the latest recevied weather packets stored in our database for station/object HK4RAU-20. If no packets are shown the sender has not sent any weather packets the latest 1 day(s).
| Time | Temp. | Humidity | Pressure | Rain* | Wind** | Luminosity | Snow |
|---|---|---|---|---|---|---|---|
| 1778180063 | 31.67° C | 66% | 1008 hPa | 0 mm | - | - | - |
| 1778179685 | 31.67° C | 66% | 1008 hPa | 0 mm | - | - | - |
| 1778179497 | 31.67° C | 66% | 1008 hPa | 0 mm | - | - | - |
| 1778179129 | 31.67° C | 66% | 1008 hPa | 0 mm | - | - | - |
| 1778178761 | 32.22° C | 66% | 1008 hPa | 0 mm | - | - | - |
| 1778178388 | 27.22° C | 70% | 1009 hPa | 0 mm | - | - | - |
| 1778178015 | 32.78° C | 66% | 1009 hPa | 0 mm | - | - | - |
| 1778177455 | 27.22° C | 70% | 1009 hPa | 0 mm | - | - | - |
| 1778177074 | 27.78° C | 70% | 1009 hPa | 0 mm | - | - | - |
| 1778176332 | 28.89° C | 70% | 1009 hPa | 0 mm | - | - | - |
| 1778175960 | 29.44° C | 70% | 1009 hPa | 0 mm | - | - | - |
| 1778175770 | 30° C | 70% | 1009 hPa | 0 mm | - | - | - |
| 1778173167 | 32.78° C | 70% | 1010 hPa | 0 mm | - | - | - |
| 1778172799 | 32.78° C | 70% | 1010 hPa | 0 mm | - | - | - |
| 1778172426 | 32.78° C | 70% | 1010 hPa | 0 mm | - | - | - |
| 1778172048 | 26.11° C | 79% | 1010 hPa | 0 mm | - | - | - |
| 1778171867 | 32.78° C | 70% | 1010 hPa | 0 mm | - | - | - |
| 1778171494 | 26.11° C | 79% | 1010 hPa | 0 mm | - | - | - |
| 1778171302 | 26.67° C | 79% | 1011 hPa | 0 mm | - | - | - |
| 1778171116 | 26.11° C | 79% | 1011 hPa | 0 mm | - | - | - |
| 1778170002 | 27.78° C | 79% | 1011 hPa | 0 mm | - | - | - |
| 1778169261 | 28.33° C | 79% | 1011 hPa | 0 mm | - | - | - |
| 1778169070 | 27.78° C | 79% | 1011 hPa | 0 mm | - | - | - |
| 1778167221 | 30° C | 79% | 1011 hPa | 0 mm | - | - | - |
| 1778165553 | 26.67° C | 74% | 1011 hPa | 0 mm | - | - | - |
* Rain latest hour (hover to see other rain measurements)
** Current wind speed in m/s (hover to see current wind gust speed)